sensor_id;sensor_type;location;lat;lon;timestamp;P1;durP1;ratioP1;P2;durP2;ratioP2
18983;SDS011;9626;52.552;13.436;2023-01-24T00:01:46;24.30;;;14.77;;
18983;SDS011;9626;52.552;13.436;2023-01-24T00:04:12;22.20;;;14.50;;
18983;SDS011;9626;52.552;13.436;2023-01-24T00:06:38;24.17;;;15.57;;
18983;SDS011;9626;52.552;13.436;2023-01-24T00:09:04;26.43;;;15.10;;
18983;SDS011;9626;52.552;13.436;2023-01-24T00:11:30;24.97;;;14.40;;
18983;SDS011;9626;52.552;13.436;2023-01-24T00:13:56;23.03;;;15.00;;
18983;SDS011;9626;52.552;13.436;2023-01-24T00:16:23;27.73;;;14.93;;
18983;SDS011;9626;52.552;13.436;2023-01-24T00:18:49;22.17;;;14.27;;
18983;SDS011;9626;52.552;13.436;2023-01-24T00:21:19;25.03;;;14.37;;
18983;SDS011;9626;52.552;13.436;2023-01-24T00:23:49;21.80;;;13.97;;
18983;SDS011;9626;52.552;13.436;2023-01-24T00:26:17;23.03;;;14.17;;
18983;SDS011;9626;52.552;13.436;2023-01-24T00:28:44;22.57;;;14.10;;
18983;SDS011;9626;52.552;13.436;2023-01-24T00:31:11;22.93;;;13.90;;
18983;SDS011;9626;52.552;13.436;2023-01-24T00:33:37;19.70;;;13.80;;
18983;SDS011;9626;52.552;13.436;2023-01-24T00:36:03;18.73;;;13.00;;
18983;SDS011;9626;52.552;13.436;2023-01-24T00:38:30;20.77;;;13.10;;
18983;SDS011;9626;52.552;13.436;2023-01-24T00:40:56;19.63;;;12.50;;
18983;SDS011;9626;52.552;13.436;2023-01-24T00:43:23;18.93;;;12.50;;
18983;SDS011;9626;52.552;13.436;2023-01-24T00:45:49;21.70;;;13.03;;
18983;SDS011;9626;52.552;13.436;2023-01-24T00:48:15;20.00;;;14.03;;
18983;SDS011;9626;52.552;13.436;2023-01-24T00:50:41;19.17;;;12.97;;
18983;SDS011;9626;52.552;13.436;2023-01-24T00:53:07;16.90;;;11.90;;
18983;SDS011;9626;52.552;13.436;2023-01-24T00:55:33;17.00;;;12.60;;
18983;SDS011;9626;52.552;13.436;2023-01-24T00:57:59;18.63;;;12.73;;
18983;SDS011;9626;52.552;13.436;2023-01-24T01:00:25;18.50;;;12.33;;
18983;SDS011;9626;52.552;13.436;2023-01-24T01:02:52;18.83;;;12.33;;
18983;SDS011;9626;52.552;13.436;2023-01-24T01:05:19;18.33;;;12.70;;
18983;SDS011;9626;52.552;13.436;2023-01-24T01:07:45;18.07;;;12.50;;
18983;SDS011;9626;52.552;13.436;2023-01-24T01:10:11;20.13;;;12.43;;
18983;SDS011;9626;52.552;13.436;2023-01-24T01:12:38;20.63;;;12.53;;
18983;SDS011;9626;52.552;13.436;2023-01-24T01:15:04;17.43;;;11.67;;
18983;SDS011;9626;52.552;13.436;2023-01-24T01:17:31;17.60;;;12.03;;
18983;SDS011;9626;52.552;13.436;2023-01-24T01:19:57;15.70;;;11.70;;
18983;SDS011;9626;52.552;13.436;2023-01-24T01:22:24;18.03;;;11.77;;
18983;SDS011;9626;52.552;13.436;2023-01-24T01:24:50;16.93;;;11.70;;
18983;SDS011;9626;52.552;13.436;2023-01-24T01:27:16;13.53;;;10.43;;
18983;SDS011;9626;52.552;13.436;2023-01-24T01:29:42;16.93;;;11.53;;
18983;SDS011;9626;52.552;13.436;2023-01-24T01:32:08;16.93;;;10.57;;
18983;SDS011;9626;52.552;13.436;2023-01-24T01:34:34;16.77;;;11.20;;
18983;SDS011;9626;52.552;13.436;2023-01-24T01:37:00;14.63;;;10.47;;
18983;SDS011;9626;52.552;13.436;2023-01-24T01:39:27;16.53;;;10.50;;
18983;SDS011;9626;52.552;13.436;2023-01-24T01:41:53;15.83;;;10.40;;
18983;SDS011;9626;52.552;13.436;2023-01-24T01:44:27;13.87;;;10.00;;
18983;SDS011;9626;52.552;13.436;2023-01-24T01:47:05;14.27;;;9.73;;
18983;SDS011;9626;52.552;13.436;2023-01-24T01:52:47;13.30;;;9.13;;
18983;SDS011;9626;52.552;13.436;2023-01-24T01:55:14;13.77;;;9.30;;
18983;SDS011;9626;52.552;13.436;2023-01-24T01:57:43;12.17;;;8.33;;
18983;SDS011;9626;52.552;13.436;2023-01-24T02:00:11;11.93;;;8.50;;
18983;SDS011;9626;52.552;13.436;2023-01-24T02:02:43;9.77;;;7.90;;
18983;SDS011;9626;52.552;13.436;2023-01-24T02:05:14;12.20;;;8.50;;
18983;SDS011;9626;52.552;13.436;2023-01-24T02:07:55;11.03;;;8.30;;
18983;SDS011;9626;52.552;13.436;2023-01-24T02:10:25;12.10;;;8.30;;
18983;SDS011;9626;52.552;13.436;2023-01-24T02:13:13;12.27;;;8.33;;
18983;SDS011;9626;52.552;13.436;2023-01-24T02:15:39;10.07;;;7.27;;
18983;SDS011;9626;52.552;13.436;2023-01-24T02:18:26;8.70;;;7.13;;
18983;SDS011;9626;52.552;13.436;2023-01-24T02:20:52;9.80;;;7.37;;
18983;SDS011;9626;52.552;13.436;2023-01-24T02:23:28;9.83;;;7.57;;
18983;SDS011;9626;52.552;13.436;2023-01-24T02:26:16;10.57;;;8.00;;
18983;SDS011;9626;52.552;13.436;2023-01-24T02:28:53;9.33;;;7.17;;
18983;SDS011;9626;52.552;13.436;2023-01-24T02:31:23;9.97;;;6.83;;
18983;SDS011;9626;52.552;13.436;2023-01-24T02:33:49;11.00;;;7.97;;
18983;SDS011;9626;52.552;13.436;2023-01-24T02:36:20;12.40;;;7.47;;
18983;SDS011;9626;52.552;13.436;2023-01-24T02:38:58;10.17;;;7.60;;
18983;SDS011;9626;52.552;13.436;2023-01-24T02:41:45;10.93;;;7.40;;
18983;SDS011;9626;52.552;13.436;2023-01-24T02:46:59;8.63;;;6.90;;
18983;SDS011;9626;52.552;13.436;2023-01-24T02:49:25;10.10;;;7.07;;
18983;SDS011;9626;52.552;13.436;2023-01-24T02:51:51;9.87;;;7.40;;
18983;SDS011;9626;52.552;13.436;2023-01-24T02:54:37;10.73;;;7.37;;
18983;SDS011;9626;52.552;13.436;2023-01-24T02:57:03;9.07;;;6.83;;
18983;SDS011;9626;52.552;13.436;2023-01-24T02:59:48;9.00;;;6.43;;
18983;SDS011;9626;52.552;13.436;2023-01-24T03:02:14;10.37;;;7.20;;
18983;SDS011;9626;52.552;13.436;2023-01-24T03:04:40;10.33;;;6.53;;
18983;SDS011;9626;52.552;13.436;2023-01-24T03:07:06;8.33;;;6.83;;
18983;SDS011;9626;52.552;13.436;2023-01-24T03:09:32;9.30;;;7.10;;
18983;SDS011;9626;52.552;13.436;2023-01-24T03:12:17;10.83;;;7.23;;
18983;SDS011;9626;52.552;13.436;2023-01-24T03:15:21;9.47;;;6.90;;
18983;SDS011;9626;52.552;13.436;2023-01-24T03:18:25;9.13;;;6.60;;
18983;SDS011;9626;52.552;13.436;2023-01-24T03:21:28;8.83;;;6.57;;
18983;SDS011;9626;52.552;13.436;2023-01-24T03:24:12;8.93;;;7.13;;
18983;SDS011;9626;52.552;13.436;2023-01-24T03:26:57;6.97;;;5.90;;
18983;SDS011;9626;52.552;13.436;2023-01-24T03:29:41;8.67;;;6.90;;
18983;SDS011;9626;52.552;13.436;2023-01-24T03:32:35;9.13;;;6.60;;
18983;SDS011;9626;52.552;13.436;2023-01-24T03:35:21;8.50;;;6.67;;
18983;SDS011;9626;52.552;13.436;2023-01-24T03:37:47;10.40;;;7.33;;
18983;SDS011;9626;52.552;13.436;2023-01-24T03:40:32;8.67;;;6.80;;
18983;SDS011;9626;52.552;13.436;2023-01-24T03:42:59;14.40;;;7.70;;
18983;SDS011;9626;52.552;13.436;2023-01-24T03:45:27;9.00;;;6.87;;
18983;SDS011;9626;52.552;13.436;2023-01-24T03:47:55;9.97;;;6.60;;
18983;SDS011;9626;52.552;13.436;2023-01-24T03:50:25;8.43;;;7.03;;
18983;SDS011;9626;52.552;13.436;2023-01-24T03:53:12;16.17;;;7.47;;
18983;SDS011;9626;52.552;13.436;2023-01-24T03:55:39;13.70;;;8.87;;
18983;SDS011;9626;52.552;13.436;2023-01-24T03:58:06;11.60;;;8.43;;
18983;SDS011;9626;52.552;13.436;2023-01-24T04:00:33;13.00;;;8.43;;
18983;SDS011;9626;52.552;13.436;2023-01-24T04:03:00;14.40;;;8.80;;
18983;SDS011;9626;52.552;13.436;2023-01-24T04:05:26;10.13;;;7.97;;
18983;SDS011;9626;52.552;13.436;2023-01-24T04:07:53;9.43;;;7.70;;
18983;SDS011;9626;52.552;13.436;2023-01-24T04:10:20;12.03;;;7.90;;
18983;SDS011;9626;52.552;13.436;2023-01-24T04:12:47;9.33;;;7.03;;
18983;SDS011;9626;52.552;13.436;2023-01-24T04:15:15;10.07;;;7.47;;
18983;SDS011;9626;52.552;13.436;2023-01-24T04:17:45;9.77;;;6.90;;
18983;SDS011;9626;52.552;13.436;2023-01-24T04:20:11;11.17;;;6.97;;
18983;SDS011;9626;52.552;13.436;2023-01-24T04:22:39;9.33;;;7.43;;
18983;SDS011;9626;52.552;13.436;2023-01-24T04:25:05;9.33;;;6.97;;
18983;SDS011;9626;52.552;13.436;2023-01-24T04:27:32;9.97;;;7.03;;
18983;SDS011;9626;52.552;13.436;2023-01-24T04:29:58;12.10;;;7.57;;
18983;SDS011;9626;52.552;13.436;2023-01-24T04:32:24;9.87;;;7.57;;
18983;SDS011;9626;52.552;13.436;2023-01-24T04:34:50;8.97;;;6.93;;
18983;SDS011;9626;52.552;13.436;2023-01-24T04:37:16;8.67;;;7.47;;
18983;SDS011;9626;52.552;13.436;2023-01-24T04:39:42;11.00;;;8.03;;
18983;SDS011;9626;52.552;13.436;2023-01-24T04:42:08;11.87;;;8.77;;
18983;SDS011;9626;52.552;13.436;2023-01-24T04:44:34;10.97;;;7.97;;
18983;SDS011;9626;52.552;13.436;2023-01-24T04:47:00;9.07;;;7.70;;
18983;SDS011;9626;52.552;13.436;2023-01-24T04:49:26;11.53;;;8.27;;
18983;SDS011;9626;52.552;13.436;2023-01-24T04:51:52;9.27;;;7.87;;
18983;SDS011;9626;52.552;13.436;2023-01-24T04:54:19;8.73;;;7.37;;
18983;SDS011;9626;52.552;13.436;2023-01-24T04:56:45;9.07;;;7.53;;
18983;SDS011;9626;52.552;13.436;2023-01-24T04:59:11;10.80;;;8.27;;
18983;SDS011;9626;52.552;13.436;2023-01-24T05:01:38;11.93;;;7.90;;
18983;SDS011;9626;52.552;13.436;2023-01-24T05:04:04;10.33;;;8.73;;
18983;SDS011;9626;52.552;13.436;2023-01-24T05:06:31;10.90;;;8.30;;
18983;SDS011;9626;52.552;13.436;2023-01-24T05:08:58;10.83;;;8.57;;
18983;SDS011;9626;52.552;13.436;2023-01-24T05:11:25;11.00;;;8.13;;
18983;SDS011;9626;52.552;13.436;2023-01-24T05:13:52;14.17;;;8.57;;
18983;SDS011;9626;52.552;13.436;2023-01-24T05:16:18;10.90;;;8.90;;
18983;SDS011;9626;52.552;13.436;2023-01-24T05:18:44;12.00;;;8.80;;
18983;SDS011;9626;52.552;13.436;2023-01-24T05:21:11;11.27;;;8.73;;
18983;SDS011;9626;52.552;13.436;2023-01-24T05:23:40;11.90;;;8.87;;
18983;SDS011;9626;52.552;13.436;2023-01-24T05:26:06;9.60;;;7.87;;
18983;SDS011;9626;52.552;13.436;2023-01-24T05:28:33;11.80;;;8.40;;
18983;SDS011;9626;52.552;13.436;2023-01-24T05:31:00;11.50;;;9.00;;
18983;SDS011;9626;52.552;13.436;2023-01-24T05:33:26;12.57;;;9.03;;
18983;SDS011;9626;52.552;13.436;2023-01-24T05:35:57;10.20;;;8.23;;
18983;SDS011;9626;52.552;13.436;2023-01-24T05:38:46;10.37;;;7.77;;
18983;SDS011;9626;52.552;13.436;2023-01-24T05:41:19;9.77;;;8.30;;
18983;SDS011;9626;52.552;13.436;2023-01-24T05:43:46;10.43;;;8.67;;
18983;SDS011;9626;52.552;13.436;2023-01-24T05:46:17;13.07;;;9.17;;
18983;SDS011;9626;52.552;13.436;2023-01-24T05:48:45;12.03;;;8.93;;
18983;SDS011;9626;52.552;13.436;2023-01-24T05:51:14;11.73;;;8.23;;
18983;SDS011;9626;52.552;13.436;2023-01-24T05:53:42;12.70;;;8.77;;
18983;SDS011;9626;52.552;13.436;2023-01-24T05:56:10;10.63;;;7.77;;
18983;SDS011;9626;52.552;13.436;2023-01-24T05:58:39;12.03;;;8.97;;
18983;SDS011;9626;52.552;13.436;2023-01-24T06:01:06;14.00;;;9.37;;
18983;SDS011;9626;52.552;13.436;2023-01-24T06:03:33;16.17;;;9.77;;
18983;SDS011;9626;52.552;13.436;2023-01-24T06:06:01;16.23;;;9.20;;
18983;SDS011;9626;52.552;13.436;2023-01-24T06:08:28;12.30;;;8.90;;
18983;SDS011;9626;52.552;13.436;2023-01-24T06:10:54;15.80;;;9.17;;
18983;SDS011;9626;52.552;13.436;2023-01-24T06:16:10;14.40;;;9.80;;
18983;SDS011;9626;52.552;13.436;2023-01-24T06:18:40;15.40;;;10.33;;
18983;SDS011;9626;52.552;13.436;2023-01-24T06:23:49;15.13;;;10.80;;
18983;SDS011;9626;52.552;13.436;2023-01-24T06:26:15;17.07;;;10.53;;
18983;SDS011;9626;52.552;13.436;2023-01-24T06:28:41;17.47;;;11.30;;
18983;SDS011;9626;52.552;13.436;2023-01-24T06:37:32;28.50;;;12.53;;
18983;SDS011;9626;52.552;13.436;2023-01-24T06:40:23;19.10;;;10.80;;
18983;SDS011;9626;52.552;13.436;2023-01-24T06:42:50;20.13;;;11.47;;
18983;SDS011;9626;52.552;13.436;2023-01-24T06:45:18;18.50;;;10.70;;
18983;SDS011;9626;52.552;13.436;2023-01-24T06:47:45;20.90;;;11.30;;
18983;SDS011;9626;52.552;13.436;2023-01-24T06:50:18;76.80;;;38.50;;
18983;SDS011;9626;52.552;13.436;2023-01-24T06:52:46;66.17;;;32.00;;
18983;SDS011;9626;52.552;13.436;2023-01-24T06:55:13;30.73;;;14.83;;
18983;SDS011;9626;52.552;13.436;2023-01-24T06:57:40;21.83;;;12.17;;
18983;SDS011;9626;52.552;13.436;2023-01-24T07:00:06;26.47;;;13.30;;
18983;SDS011;9626;52.552;13.436;2023-01-24T07:02:33;32.43;;;19.23;;
18983;SDS011;9626;52.552;13.436;2023-01-24T07:04:59;35.00;;;17.30;;
18983;SDS011;9626;52.552;13.436;2023-01-24T07:07:25;61.33;;;36.00;;
18983;SDS011;9626;52.552;13.436;2023-01-24T07:09:51;45.57;;;25.17;;
18983;SDS011;9626;52.552;13.436;2023-01-24T07:12:17;45.87;;;25.10;;
18983;SDS011;9626;52.552;13.436;2023-01-24T07:14:44;40.50;;;27.57;;
18983;SDS011;9626;52.552;13.436;2023-01-24T07:17:10;38.00;;;21.93;;
18983;SDS011;9626;52.552;13.436;2023-01-24T07:19:36;34.83;;;16.23;;
18983;SDS011;9626;52.552;13.436;2023-01-24T07:22:02;31.47;;;16.40;;
18983;SDS011;9626;52.552;13.436;2023-01-24T07:24:29;33.97;;;14.27;;
18983;SDS011;9626;52.552;13.436;2023-01-24T07:26:56;38.93;;;15.90;;
18983;SDS011;9626;52.552;13.436;2023-01-24T07:29:22;31.23;;;14.70;;
18983;SDS011;9626;52.552;13.436;2023-01-24T07:31:49;37.87;;;16.20;;
18983;SDS011;9626;52.552;13.436;2023-01-24T07:34:16;36.13;;;17.30;;
18983;SDS011;9626;52.552;13.436;2023-01-24T07:36:43;39.27;;;16.63;;
18983;SDS011;9626;52.552;13.436;2023-01-24T07:39:10;45.40;;;16.67;;
18983;SDS011;9626;52.552;13.436;2023-01-24T07:41:37;46.30;;;17.90;;
18983;SDS011;9626;52.552;13.436;2023-01-24T07:44:04;37.00;;;16.53;;
18983;SDS011;9626;52.552;13.436;2023-01-24T07:46:32;39.37;;;17.00;;
18983;SDS011;9626;52.552;13.436;2023-01-24T07:48:58;41.67;;;17.97;;
18983;SDS011;9626;52.552;13.436;2023-01-24T07:51:24;36.73;;;16.33;;
18983;SDS011;9626;52.552;13.436;2023-01-24T07:53:50;43.17;;;16.73;;
18983;SDS011;9626;52.552;13.436;2023-01-24T07:56:16;40.20;;;17.23;;
18983;SDS011;9626;52.552;13.436;2023-01-24T07:58:43;41.30;;;18.13;;
18983;SDS011;9626;52.552;13.436;2023-01-24T08:01:15;40.33;;;16.37;;
18983;SDS011;9626;52.552;13.436;2023-01-24T08:03:42;37.90;;;17.53;;
18983;SDS011;9626;52.552;13.436;2023-01-24T08:06:08;38.27;;;16.70;;
18983;SDS011;9626;52.552;13.436;2023-01-24T08:08:34;39.40;;;15.50;;
18983;SDS011;9626;52.552;13.436;2023-01-24T08:11:00;41.93;;;16.47;;
18983;SDS011;9626;52.552;13.436;2023-01-24T08:13:26;36.93;;;15.97;;
18983;SDS011;9626;52.552;13.436;2023-01-24T08:15:52;34.13;;;15.90;;
18983;SDS011;9626;52.552;13.436;2023-01-24T08:18:18;47.43;;;16.43;;
18983;SDS011;9626;52.552;13.436;2023-01-24T08:20:45;50.87;;;17.53;;
18983;SDS011;9626;52.552;13.436;2023-01-24T08:23:11;47.43;;;17.00;;
18983;SDS011;9626;52.552;13.436;2023-01-24T08:25:37;38.57;;;16.30;;
18983;SDS011;9626;52.552;13.436;2023-01-24T08:28:03;39.77;;;16.57;;
18983;SDS011;9626;52.552;13.436;2023-01-24T08:30:29;36.80;;;15.63;;
18983;SDS011;9626;52.552;13.436;2023-01-24T08:32:59;46.20;;;17.03;;
18983;SDS011;9626;52.552;13.436;2023-01-24T08:35:29;41.37;;;18.37;;
18983;SDS011;9626;52.552;13.436;2023-01-24T08:37:56;39.77;;;16.33;;
18983;SDS011;9626;52.552;13.436;2023-01-24T08:40:22;43.40;;;18.57;;
18983;SDS011;9626;52.552;13.436;2023-01-24T08:42:49;45.97;;;18.40;;
18983;SDS011;9626;52.552;13.436;2023-01-24T08:45:15;53.17;;;21.17;;
18983;SDS011;9626;52.552;13.436;2023-01-24T08:47:41;51.37;;;20.53;;
18983;SDS011;9626;52.552;13.436;2023-01-24T08:50:07;60.87;;;21.97;;
18983;SDS011;9626;52.552;13.436;2023-01-24T08:52:34;61.80;;;22.47;;
18983;SDS011;9626;52.552;13.436;2023-01-24T08:55:00;133.63;;;30.63;;
18983;SDS011;9626;52.552;13.436;2023-01-24T08:57:26;79.67;;;25.47;;
18983;SDS011;9626;52.552;13.436;2023-01-24T08:59:52;151.60;;;33.83;;
18983;SDS011;9626;52.552;13.436;2023-01-24T09:02:19;87.13;;;27.70;;
18983;SDS011;9626;52.552;13.436;2023-01-24T09:04:45;79.50;;;26.87;;
18983;SDS011;9626;52.552;13.436;2023-01-24T09:07:11;81.57;;;27.97;;
18983;SDS011;9626;52.552;13.436;2023-01-24T09:09:37;90.03;;;26.77;;
18983;SDS011;9626;52.552;13.436;2023-01-24T09:12:04;77.33;;;27.93;;
18983;SDS011;9626;52.552;13.436;2023-01-24T09:14:30;83.83;;;28.77;;
18983;SDS011;9626;52.552;13.436;2023-01-24T09:16:56;98.07;;;31.73;;
18983;SDS011;9626;52.552;13.436;2023-01-24T09:19:22;84.43;;;28.40;;
18983;SDS011;9626;52.552;13.436;2023-01-24T09:21:49;84.90;;;29.17;;
18983;SDS011;9626;52.552;13.436;2023-01-24T09:24:18;142.87;;;35.50;;
18983;SDS011;9626;52.552;13.436;2023-01-24T09:26:44;91.70;;;29.43;;
18983;SDS011;9626;52.552;13.436;2023-01-24T09:29:10;74.90;;;26.60;;
18983;SDS011;9626;52.552;13.436;2023-01-24T09:31:36;111.40;;;30.53;;
18983;SDS011;9626;52.552;13.436;2023-01-24T09:34:03;104.10;;;30.30;;
18983;SDS011;9626;52.552;13.436;2023-01-24T09:36:29;72.73;;;26.97;;
18983;SDS011;9626;52.552;13.436;2023-01-24T09:38:55;101.27;;;29.30;;
18983;SDS011;9626;52.552;13.436;2023-01-24T09:44:21;97.27;;;30.40;;
18983;SDS011;9626;52.552;13.436;2023-01-24T09:46:48;104.90;;;32.47;;
18983;SDS011;9626;52.552;13.436;2023-01-24T09:49:21;97.00;;;29.80;;
18983;SDS011;9626;52.552;13.436;2023-01-24T09:51:58;95.20;;;30.40;;
18983;SDS011;9626;52.552;13.436;2023-01-24T09:54:34;90.30;;;30.17;;
18983;SDS011;9626;52.552;13.436;2023-01-24T09:57:19;100.33;;;30.60;;
18983;SDS011;9626;52.552;13.436;2023-01-24T10:00:16;132.13;;;35.03;;
18983;SDS011;9626;52.552;13.436;2023-01-24T10:02:49;101.13;;;29.83;;
18983;SDS011;9626;52.552;13.436;2023-01-24T10:05:16;106.93;;;31.37;;
18983;SDS011;9626;52.552;13.436;2023-01-24T10:15:21;116.07;;;32.93;;
18983;SDS011;9626;52.552;13.436;2023-01-24T10:23:42;70.67;;;26.23;;
18983;SDS011;9626;52.552;13.436;2023-01-24T10:26:20;67.57;;;24.60;;
18983;SDS011;9626;52.552;13.436;2023-01-24T10:29:16;68.93;;;25.17;;
18983;SDS011;9626;52.552;13.436;2023-01-24T10:35:30;63.20;;;23.57;;
18983;SDS011;9626;52.552;13.436;2023-01-24T10:37:52;67.70;;;25.30;;
18983;SDS011;9626;52.552;13.436;2023-01-24T10:40:21;65.03;;;24.27;;
18983;SDS011;9626;52.552;13.436;2023-01-24T10:42:50;62.40;;;24.47;;
18983;SDS011;9626;52.552;13.436;2023-01-24T10:45:21;67.10;;;25.53;;
18983;SDS011;9626;52.552;13.436;2023-01-24T10:48:02;66.63;;;26.57;;
18983;SDS011;9626;52.552;13.436;2023-01-24T10:50:41;79.33;;;27.90;;
18983;SDS011;9626;52.552;13.436;2023-01-24T10:53:22;67.40;;;24.40;;
18983;SDS011;9626;52.552;13.436;2023-01-24T10:55:48;59.27;;;23.00;;
18983;SDS011;9626;52.552;13.436;2023-01-24T10:58:22;54.10;;;22.17;;
18983;SDS011;9626;52.552;13.436;2023-01-24T11:00:57;55.23;;;22.53;;
18983;SDS011;9626;52.552;13.436;2023-01-24T11:03:26;62.23;;;24.00;;
18983;SDS011;9626;52.552;13.436;2023-01-24T11:05:55;52.57;;;21.53;;
18983;SDS011;9626;52.552;13.436;2023-01-24T11:08:23;55.03;;;22.43;;
18983;SDS011;9626;52.552;13.436;2023-01-24T11:10:54;47.83;;;21.83;;
18983;SDS011;9626;52.552;13.436;2023-01-24T11:13:35;54.20;;;23.00;;
18983;SDS011;9626;52.552;13.436;2023-01-24T11:18:48;55.60;;;23.47;;
18983;SDS011;9626;52.552;13.436;2023-01-24T11:21:27;56.47;;;22.47;;
18983;SDS011;9626;52.552;13.436;2023-01-24T11:24:07;52.97;;;22.23;;
18983;SDS011;9626;52.552;13.436;2023-01-24T11:26:56;59.70;;;25.63;;
18983;SDS011;9626;52.552;13.436;2023-01-24T11:29:30;49.47;;;22.10;;
18983;SDS011;9626;52.552;13.436;2023-01-24T11:32:12;51.67;;;21.70;;
18983;SDS011;9626;52.552;13.436;2023-01-24T11:43:32;42.60;;;20.07;;
18983;SDS011;9626;52.552;13.436;2023-01-24T11:46:11;47.53;;;20.97;;
18983;SDS011;9626;52.552;13.436;2023-01-24T11:56:49;48.07;;;20.87;;
18983;SDS011;9626;52.552;13.436;2023-01-24T12:05:53;83.97;;;23.63;;
18983;SDS011;9626;52.552;13.436;2023-01-24T12:11:01;43.67;;;19.00;;
18983;SDS011;9626;52.552;13.436;2023-01-24T12:13:39;41.20;;;18.63;;
18983;SDS011;9626;52.552;13.436;2023-01-24T12:19:18;42.17;;;19.63;;
18983;SDS011;9626;52.552;13.436;2023-01-24T12:22:09;59.17;;;21.30;;
18983;SDS011;9626;52.552;13.436;2023-01-24T12:24:42;70.60;;;23.37;;
18983;SDS011;9626;52.552;13.436;2023-01-24T12:27:14;49.20;;;19.90;;
18983;SDS011;9626;52.552;13.436;2023-01-24T12:29:44;42.73;;;19.33;;
18983;SDS011;9626;52.552;13.436;2023-01-24T12:32:33;41.27;;;19.17;;
18983;SDS011;9626;52.552;13.436;2023-01-24T12:35:29;46.63;;;20.13;;
18983;SDS011;9626;52.552;13.436;2023-01-24T12:38:04;46.30;;;21.03;;
18983;SDS011;9626;52.552;13.436;2023-01-24T12:43:13;45.53;;;20.50;;
18983;SDS011;9626;52.552;13.436;2023-01-24T12:45:55;46.60;;;21.07;;
18983;SDS011;9626;52.552;13.436;2023-01-24T12:48:50;44.93;;;19.30;;
18983;SDS011;9626;52.552;13.436;2023-01-24T12:51:26;41.57;;;19.03;;
18983;SDS011;9626;52.552;13.436;2023-01-24T12:54:01;44.33;;;20.40;;
18983;SDS011;9626;52.552;13.436;2023-01-24T12:56:46;45.17;;;20.13;;
18983;SDS011;9626;52.552;13.436;2023-01-24T12:59:36;48.77;;;19.47;;
18983;SDS011;9626;52.552;13.436;2023-01-24T13:08:23;42.67;;;19.87;;
18983;SDS011;9626;52.552;13.436;2023-01-24T13:13:28;45.63;;;18.97;;
18983;SDS011;9626;52.552;13.436;2023-01-24T13:27:36;35.70;;;17.70;;
18983;SDS011;9626;52.552;13.436;2023-01-24T13:30:17;46.97;;;19.60;;
18983;SDS011;9626;52.552;13.436;2023-01-24T13:32:45;43.67;;;19.80;;
18983;SDS011;9626;52.552;13.436;2023-01-24T13:35:20;43.17;;;19.10;;
18983;SDS011;9626;52.552;13.436;2023-01-24T13:37:52;40.43;;;18.77;;
18983;SDS011;9626;52.552;13.436;2023-01-24T13:40:28;38.63;;;18.67;;
18983;SDS011;9626;52.552;13.436;2023-01-24T13:43:01;40.10;;;18.97;;
18983;SDS011;9626;52.552;13.436;2023-01-24T13:45:49;42.80;;;19.00;;
18983;SDS011;9626;52.552;13.436;2023-01-24T13:59:39;67.90;;;21.40;;
18983;SDS011;9626;52.552;13.436;2023-01-24T14:04:56;42.03;;;17.80;;
18983;SDS011;9626;52.552;13.436;2023-01-24T14:10:05;74.27;;;22.13;;
18983;SDS011;9626;52.552;13.436;2023-01-24T14:12:37;74.00;;;21.33;;
18983;SDS011;9626;52.552;13.436;2023-01-24T14:15:26;100.23;;;25.73;;
18983;SDS011;9626;52.552;13.436;2023-01-24T14:18:02;210.27;;;39.23;;
18983;SDS011;9626;52.552;13.436;2023-01-24T14:20:44;49.93;;;18.83;;
18983;SDS011;9626;52.552;13.436;2023-01-24T14:23:18;42.00;;;16.90;;
18983;SDS011;9626;52.552;13.436;2023-01-24T14:25:53;35.73;;;17.03;;
18983;SDS011;9626;52.552;13.436;2023-01-24T14:28:23;37.77;;;16.27;;
18983;SDS011;9626;52.552;13.436;2023-01-24T14:30:52;34.73;;;16.07;;
18983;SDS011;9626;52.552;13.436;2023-01-24T14:33:25;38.07;;;16.63;;
18983;SDS011;9626;52.552;13.436;2023-01-24T14:36:05;37.57;;;18.23;;
18983;SDS011;9626;52.552;13.436;2023-01-24T14:38:37;40.30;;;17.50;;
18983;SDS011;9626;52.552;13.436;2023-01-24T14:41:03;38.53;;;17.40;;
18983;SDS011;9626;52.552;13.436;2023-01-24T14:43:33;40.33;;;16.60;;
18983;SDS011;9626;52.552;13.436;2023-01-24T14:46:09;39.13;;;17.40;;
18983;SDS011;9626;52.552;13.436;2023-01-24T14:48:36;53.20;;;18.77;;
18983;SDS011;9626;52.552;13.436;2023-01-24T14:51:11;51.50;;;18.53;;
18983;SDS011;9626;52.552;13.436;2023-01-24T14:53:45;101.00;;;24.47;;
18983;SDS011;9626;52.552;13.436;2023-01-24T14:56:13;83.50;;;20.97;;
18983;SDS011;9626;52.552;13.436;2023-01-24T14:58:39;55.30;;;19.00;;
18983;SDS011;9626;52.552;13.436;2023-01-24T15:01:22;80.57;;;21.57;;
18983;SDS011;9626;52.552;13.436;2023-01-24T15:03:54;179.10;;;32.90;;
18983;SDS011;9626;52.552;13.436;2023-01-24T15:06:22;102.10;;;25.77;;
18983;SDS011;9626;52.552;13.436;2023-01-24T15:08:53;58.60;;;21.60;;
18983;SDS011;9626;52.552;13.436;2023-01-24T15:11:32;46.50;;;17.30;;
18983;SDS011;9626;52.552;13.436;2023-01-24T15:16:34;38.30;;;16.70;;
18983;SDS011;9626;52.552;13.436;2023-01-24T15:19:45;40.00;;;16.50;;
18983;SDS011;9626;52.552;13.436;2023-01-24T15:21:53;37.50;;;17.40;;
18983;SDS011;9626;52.552;13.436;2023-01-24T15:24:25;36.37;;;16.27;;
18983;SDS011;9626;52.552;13.436;2023-01-24T15:26:53;35.57;;;16.17;;
18983;SDS011;9626;52.552;13.436;2023-01-24T15:29:36;36.83;;;18.80;;
18983;SDS011;9626;52.552;13.436;2023-01-24T15:37:39;31.03;;;17.23;;
18983;SDS011;9626;52.552;13.436;2023-01-24T15:40:12;37.27;;;17.03;;
18983;SDS011;9626;52.552;13.436;2023-01-24T15:42:43;36.87;;;17.70;;
18983;SDS011;9626;52.552;13.436;2023-01-24T15:45:48;35.63;;;17.63;;
18983;SDS011;9626;52.552;13.436;2023-01-24T15:48:37;35.80;;;17.37;;
18983;SDS011;9626;52.552;13.436;2023-01-24T15:51:03;36.07;;;15.90;;
18983;SDS011;9626;52.552;13.436;2023-01-24T15:53:33;40.97;;;16.90;;
18983;SDS011;9626;52.552;13.436;2023-01-24T15:56:02;38.47;;;16.27;;
18983;SDS011;9626;52.552;13.436;2023-01-24T15:58:31;36.63;;;16.53;;
18983;SDS011;9626;52.552;13.436;2023-01-24T16:00:59;34.30;;;16.43;;
18983;SDS011;9626;52.552;13.436;2023-01-24T16:03:26;37.60;;;19.13;;
18983;SDS011;9626;52.552;13.436;2023-01-24T16:05:52;39.90;;;20.47;;
18983;SDS011;9626;52.552;13.436;2023-01-24T16:08:18;38.07;;;20.07;;
18983;SDS011;9626;52.552;13.436;2023-01-24T16:10:45;40.40;;;22.60;;
18983;SDS011;9626;52.552;13.436;2023-01-24T16:13:29;37.80;;;18.40;;
18983;SDS011;9626;52.552;13.436;2023-01-24T16:16:10;39.67;;;18.30;;
18983;SDS011;9626;52.552;13.436;2023-01-24T16:18:39;34.17;;;17.00;;
18983;SDS011;9626;52.552;13.436;2023-01-24T16:21:07;39.40;;;18.63;;
18983;SDS011;9626;52.552;13.436;2023-01-24T16:23:34;34.50;;;16.73;;
18983;SDS011;9626;52.552;13.436;2023-01-24T16:26:00;38.23;;;16.40;;
18983;SDS011;9626;52.552;13.436;2023-01-24T16:28:26;34.63;;;17.20;;
18983;SDS011;9626;52.552;13.436;2023-01-24T16:30:54;40.77;;;18.23;;
18983;SDS011;9626;52.552;13.436;2023-01-24T16:33:26;33.43;;;16.57;;
18983;SDS011;9626;52.552;13.436;2023-01-24T16:35:52;34.63;;;16.33;;
18983;SDS011;9626;52.552;13.436;2023-01-24T16:38:18;33.10;;;15.90;;
18983;SDS011;9626;52.552;13.436;2023-01-24T16:40:44;39.57;;;18.23;;
18983;SDS011;9626;52.552;13.436;2023-01-24T16:43:17;36.03;;;17.03;;
18983;SDS011;9626;52.552;13.436;2023-01-24T16:45:46;33.60;;;16.37;;